createdAt,value
2017-11-28T00:01:34.723Z,0.93
2017-11-28T00:04:03.954Z,0.90
2017-11-28T00:06:33.311Z,0.87
2017-11-28T00:09:02.631Z,0.90
2017-11-28T00:11:31.871Z,0.90
2017-11-28T00:14:01.134Z,1.17
2017-11-28T00:16:30.378Z,0.77
2017-11-28T00:18:59.629Z,1.17
2017-11-28T00:21:28.866Z,1.10
2017-11-28T00:23:58.132Z,0.83
2017-11-28T00:26:28.129Z,0.90
2017-11-28T00:28:57.532Z,1.27
2017-11-28T00:31:27.641Z,0.90
2017-11-28T00:33:56.901Z,0.97
2017-11-28T00:36:26.245Z,0.90
2017-11-28T00:38:55.498Z,1.03
2017-11-28T00:41:24.747Z,1.13
2017-11-28T00:43:54.010Z,1.10
2017-11-28T00:46:23.251Z,1.20
2017-11-28T00:48:52.492Z,1.40
2017-11-28T00:51:21.738Z,0.80
2017-11-28T00:53:50.975Z,1.47
2017-11-28T00:56:20.992Z,2.07
2017-11-28T00:58:50.218Z,0.80
2017-11-28T01:01:20.355Z,1.03
2017-11-28T01:03:49.613Z,1.50
2017-11-28T01:06:19.611Z,0.80
2017-11-28T01:08:48.930Z,1.20
2017-11-28T01:11:18.172Z,1.00
2017-11-28T01:13:47.427Z,1.20
2017-11-28T01:16:17.436Z,1.10
2017-11-28T01:18:46.819Z,0.97
2017-11-28T01:21:16.047Z,1.07
2017-11-28T01:23:45.303Z,1.17
2017-11-28T01:26:14.569Z,1.13
2017-11-28T01:28:44.028Z,1.10
2017-11-28T01:31:13.247Z,0.90
2017-11-28T01:33:42.483Z,0.87
2017-11-28T01:36:11.739Z,1.10
2017-11-28T01:38:40.987Z,1.10
2017-11-28T01:41:10.235Z,1.23
2017-11-28T01:43:39.487Z,1.30
2017-11-28T01:46:08.747Z,1.07
2017-11-28T01:48:38.897Z,0.93
2017-11-28T01:51:08.911Z,0.93
2017-11-28T01:53:38.292Z,0.90
2017-11-28T01:56:07.551Z,1.13
2017-11-28T01:58:36.812Z,1.13
2017-11-28T02:01:06.046Z,1.17
2017-11-28T02:03:35.279Z,1.00
2017-11-28T02:06:05.287Z,1.13
2017-11-28T02:08:34.629Z,1.10
2017-11-28T02:11:03.858Z,0.90
2017-11-28T02:13:33.108Z,1.47
2017-11-28T02:16:03.143Z,0.80
2017-11-28T02:18:32.424Z,0.80
2017-11-28T02:21:01.659Z,1.10
2017-11-28T02:23:31.702Z,1.10
2017-11-28T02:26:00.969Z,1.30
2017-11-28T02:28:31.798Z,0.90
2017-11-28T02:31:01.812Z,1.03
2017-11-28T02:33:31.070Z,1.00
2017-11-28T02:36:00.316Z,1.10
2017-11-28T02:38:30.451Z,1.00
2017-11-28T02:41:12.846Z,1.10
2017-11-28T02:43:42.847Z,0.93
2017-11-28T02:46:17.300Z,1.00
2017-11-28T02:48:51.521Z,0.93
2017-11-28T02:51:20.907Z,1.33
2017-11-28T02:53:50.351Z,1.00
2017-11-28T02:56:19.611Z,0.80
2017-11-28T02:58:49.701Z,1.20
2017-11-28T03:01:23.769Z,1.00
2017-11-28T03:03:53.316Z,1.00
2017-11-28T03:06:22.583Z,0.90
2017-11-28T03:08:51.837Z,1.00
2017-11-28T03:11:21.249Z,1.00
2017-11-28T03:13:51.982Z,0.90
2017-11-28T03:16:24.169Z,1.07
2017-11-28T03:19:13.745Z,1.10
2017-11-28T03:21:45.710Z,0.90
2017-11-28T03:27:19.877Z,0.90
2017-11-28T03:29:51.475Z,1.00
2017-11-28T03:32:21.185Z,1.23
2017-11-28T03:34:50.276Z,0.90
2017-11-28T03:37:19.242Z,1.43
2017-11-28T03:39:48.834Z,1.03
2017-11-28T03:42:17.775Z,1.30
2017-11-28T03:48:04.104Z,1.27
2017-11-28T03:50:33.372Z,1.20
2017-11-28T03:53:02.718Z,1.00
2017-11-28T03:55:31.980Z,1.00
2017-11-28T03:58:01.246Z,1.20
2017-11-28T04:00:30.494Z,0.80
2017-11-28T04:02:59.924Z,0.83
2017-11-28T04:05:29.959Z,0.90
2017-11-28T04:07:59.263Z,0.90
2017-11-28T04:10:28.507Z,1.20
2017-11-28T04:12:57.782Z,0.80
2017-11-28T04:15:30.425Z,1.10
2017-11-28T04:17:59.990Z,1.00
2017-11-28T04:20:29.280Z,0.83
2017-11-28T04:22:58.503Z,0.80
2017-11-28T04:25:27.958Z,0.90
2017-11-28T04:27:58.070Z,0.90
2017-11-28T04:30:28.192Z,1.33
2017-11-28T04:32:57.413Z,1.17
2017-11-28T04:35:27.606Z,1.13
2017-11-28T04:37:57.595Z,1.00
2017-11-28T04:40:26.843Z,1.10
2017-11-28T04:42:56.127Z,0.90
2017-11-28T04:45:26.123Z,1.10
2017-11-28T04:47:55.523Z,0.97
2017-11-28T04:50:24.812Z,0.83
2017-11-28T04:52:54.200Z,0.93
2017-11-28T04:55:23.446Z,1.10
2017-11-28T04:57:53.479Z,0.93
2017-11-28T05:00:22.729Z,1.10
2017-11-28T05:02:51.983Z,1.23
2017-11-28T05:05:21.269Z,1.10
2017-11-28T05:07:51.311Z,1.37
2017-11-28T05:10:20.571Z,1.07
2017-11-28T05:12:49.813Z,1.17
2017-11-28T05:15:19.073Z,1.43
2017-11-28T05:17:48.812Z,1.33
2017-11-28T05:20:18.907Z,1.37
2017-11-28T05:22:48.215Z,1.57
2017-11-28T05:25:17.436Z,0.90
2017-11-28T05:27:46.689Z,1.50
2017-11-28T05:30:15.983Z,1.70
2017-11-28T05:32:45.242Z,1.17
2017-11-28T05:35:14.590Z,1.57
2017-11-28T05:37:44.044Z,1.20
2017-11-28T05:40:14.163Z,1.90
2017-11-28T05:42:44.284Z,1.10
2017-11-28T05:45:14.395Z,0.80
2017-11-28T05:47:44.467Z,1.20
2017-11-28T05:50:13.741Z,0.90
2017-11-28T05:52:43.004Z,1.10
2017-11-28T05:55:13.050Z,1.27
2017-11-28T05:57:42.317Z,1.00
2017-11-28T06:00:11.589Z,0.93
2017-11-28T06:02:40.844Z,1.30
2017-11-28T06:05:10.095Z,1.60
2017-11-28T06:07:39.364Z,2.40
2017-11-28T06:10:08.828Z,2.37
2017-11-28T06:12:38.079Z,3.20
2017-11-28T06:15:07.335Z,3.50
2017-11-28T06:17:36.819Z,3.43
2017-11-28T06:20:06.243Z,1.33
2017-11-28T06:22:35.472Z,1.33
2017-11-28T06:25:04.743Z,1.20
2017-11-28T06:27:34.013Z,0.93
2017-11-28T06:30:03.324Z,0.80
2017-11-28T06:32:32.568Z,1.20
2017-11-28T06:35:02.155Z,0.80
2017-11-28T06:37:32.179Z,0.90
2017-11-28T06:40:02.286Z,0.93
2017-11-28T06:42:31.598Z,1.00
2017-11-28T06:45:00.846Z,0.90
2017-11-28T06:47:30.112Z,0.80
2017-11-28T06:49:59.445Z,0.70
2017-11-28T06:52:28.685Z,0.93
2017-11-28T06:54:58.175Z,0.87
2017-11-28T06:57:28.277Z,0.87
2017-11-28T07:00:01.684Z,1.40
2017-11-28T07:02:32.008Z,1.00
2017-11-28T07:05:02.010Z,0.80
2017-11-28T07:07:31.412Z,0.80
2017-11-28T07:10:00.711Z,0.67
2017-11-28T07:12:29.945Z,0.90
2017-11-28T07:14:59.211Z,0.90
2017-11-28T07:17:28.446Z,0.60
2017-11-28T07:19:57.671Z,0.70
2017-11-28T07:22:26.936Z,0.50
2017-11-28T07:24:56.259Z,0.70
2017-11-28T07:27:26.118Z,1.00
2017-11-28T07:29:55.504Z,0.67
2017-11-28T07:32:25.523Z,0.70
2017-11-28T07:34:54.796Z,0.60
2017-11-28T07:37:24.053Z,1.00
2017-11-28T07:39:54.016Z,0.73
2017-11-28T07:42:23.203Z,0.73
2017-11-28T07:44:52.518Z,0.80
2017-11-28T07:47:21.779Z,0.90
2017-11-28T07:49:51.123Z,0.87
2017-11-28T07:52:20.364Z,0.60
2017-11-28T07:54:49.610Z,0.70
2017-11-28T07:57:18.857Z,0.73
2017-11-28T07:59:48.083Z,0.70
2017-11-28T08:02:17.334Z,0.60
2017-11-28T08:04:46.556Z,0.60
2017-11-28T08:07:15.815Z,0.60
2017-11-28T08:09:45.072Z,0.50
2017-11-28T08:12:14.303Z,0.60
2017-11-28T08:14:43.698Z,0.50
2017-11-28T08:17:13.018Z,0.60
2017-11-28T08:19:42.338Z,1.40
2017-11-28T08:22:12.344Z,0.83
2017-11-28T08:24:42.362Z,0.50
2017-11-28T08:27:11.603Z,0.50
2017-11-28T08:29:40.878Z,0.70
2017-11-28T08:32:10.127Z,0.60
2017-11-28T08:34:39.379Z,0.60
2017-11-28T08:37:09.373Z,0.70
2017-11-28T08:39:38.634Z,1.00
2017-11-28T08:42:07.859Z,0.60
2017-11-28T08:44:37.147Z,0.70
2017-11-28T08:47:06.419Z,0.50
2017-11-28T08:49:35.651Z,0.73
2017-11-28T08:52:04.912Z,0.60
2017-11-28T08:54:34.914Z,0.63
2017-11-28T08:57:04.319Z,0.50
2017-11-28T08:59:34.350Z,0.60
2017-11-28T09:02:03.842Z,0.60
2017-11-28T09:04:33.430Z,0.70
2017-11-28T09:07:02.655Z,0.60
2017-11-28T09:09:31.899Z,0.70
2017-11-28T09:12:01.322Z,0.53
2017-11-28T09:14:30.563Z,0.60
2017-11-28T09:16:59.952Z,0.70
2017-11-28T09:19:29.212Z,0.50
2017-11-28T09:21:58.556Z,0.63
2017-11-28T09:24:28.579Z,0.70
2017-11-28T09:26:58.532Z,0.60
2017-11-28T09:29:27.813Z,0.50
2017-11-28T09:31:57.069Z,0.60
2017-11-28T09:34:26.984Z,0.60
2017-11-28T09:36:56.413Z,0.70
2017-11-28T09:39:26.533Z,0.60
2017-11-28T09:41:56.571Z,0.70
2017-11-28T09:44:25.940Z,0.63
2017-11-28T09:46:56.146Z,0.87
2017-11-28T09:49:25.427Z,0.70
2017-11-28T09:51:54.695Z,0.80
2017-11-28T09:54:23.963Z,0.70
2017-11-28T09:56:53.279Z,0.80
2017-11-28T09:59:23.326Z,0.70
2017-11-28T10:01:52.570Z,0.70
2017-11-28T10:04:21.826Z,0.60
2017-11-28T10:06:51.092Z,0.80
2017-11-28T10:09:20.339Z,0.97
2017-11-28T10:11:49.586Z,0.70
2017-11-28T10:14:18.835Z,0.70
2017-11-28T10:16:48.086Z,0.80
2017-11-28T10:19:17.335Z,0.70
2017-11-28T10:21:46.580Z,0.90
2017-11-28T10:24:17.431Z,0.80
2017-11-28T10:26:46.693Z,1.20
2017-11-28T10:29:16.099Z,1.20
2017-11-28T10:31:45.377Z,1.43
2017-11-28T10:34:14.619Z,0.90
2017-11-28T10:36:44.543Z,1.00
2017-11-28T10:39:13.792Z,0.90
2017-11-28T10:41:43.051Z,1.20
2017-11-28T10:44:12.473Z,1.13
2017-11-28T10:46:42.496Z,1.20
2017-11-28T10:49:11.753Z,1.23
2017-11-28T10:51:41.187Z,1.10
2017-11-28T10:54:11.250Z,0.93
2017-11-28T10:56:40.495Z,0.90
2017-11-28T10:59:09.919Z,1.03
2017-11-28T11:01:40.499Z,0.80
2017-11-28T11:04:09.764Z,1.00
2017-11-28T11:06:39.014Z,1.07
2017-11-28T11:09:08.244Z,0.87
2017-11-28T11:11:37.520Z,1.87
2017-11-28T11:14:06.776Z,0.80
2017-11-28T11:16:36.054Z,1.10
2017-11-28T11:19:06.077Z,1.20
2017-11-28T11:21:35.463Z,1.20
2017-11-28T11:24:05.506Z,1.10
2017-11-28T11:26:34.782Z,1.23
2017-11-28T11:29:04.400Z,0.87
2017-11-28T11:31:34.423Z,1.47
2017-11-28T11:34:03.663Z,1.17
2017-11-28T11:36:32.928Z,1.30
2017-11-28T11:39:03.028Z,1.63
2017-11-28T11:41:32.270Z,1.00
2017-11-28T11:44:01.583Z,0.80
2017-11-28T11:46:30.829Z,1.10
2017-11-28T11:49:00.237Z,1.30
2017-11-28T11:51:29.752Z,1.07
2017-11-28T11:53:59.758Z,1.30
2017-11-28T11:56:29.203Z,1.10
2017-11-28T11:58:58.474Z,1.20
2017-11-28T12:01:28.920Z,1.13
2017-11-28T12:03:58.291Z,1.00
2017-11-28T12:06:27.787Z,0.90
2017-11-28T12:08:57.871Z,1.50
2017-11-28T12:11:27.306Z,1.03
2017-11-28T12:13:56.564Z,1.23
2017-11-28T12:16:25.816Z,1.10
2017-11-28T12:18:55.212Z,1.83
2017-11-28T12:21:24.466Z,1.20
2017-11-28T12:23:53.713Z,1.07
2017-11-28T12:26:22.937Z,1.10
2017-11-28T12:28:52.179Z,1.67
2017-11-28T12:31:21.412Z,1.00
2017-11-28T12:33:50.675Z,1.10
2017-11-28T12:36:19.919Z,1.70
2017-11-28T12:38:49.389Z,1.50
2017-11-28T12:41:19.398Z,0.90
2017-11-28T12:43:48.650Z,1.00
2017-11-28T12:46:17.886Z,1.10
2017-11-28T12:48:47.197Z,1.20
2017-11-28T12:51:16.445Z,1.30
2017-11-28T12:53:45.696Z,1.33
2017-11-28T12:56:15.103Z,1.20
2017-11-28T12:58:44.330Z,1.20
2017-11-28T13:01:13.578Z,1.10
2017-11-28T13:03:42.811Z,1.00
2017-11-28T13:06:12.823Z,1.20
2017-11-28T13:08:42.063Z,1.13
2017-11-28T13:11:11.470Z,1.13
2017-11-28T13:13:40.734Z,1.10
2017-11-28T13:16:09.968Z,2.13
2017-11-28T13:18:39.895Z,1.00
2017-11-28T13:21:09.133Z,0.90
2017-11-28T13:23:38.484Z,0.80
2017-11-28T13:26:07.712Z,1.17
2017-11-28T13:28:37.038Z,0.83
2017-11-28T13:31:06.298Z,0.90
2017-11-28T13:33:35.575Z,0.90
2017-11-28T13:36:04.954Z,1.10
2017-11-28T13:38:34.253Z,1.30
2017-11-28T13:41:03.483Z,1.13
2017-11-28T13:43:32.716Z,0.90
2017-11-28T13:46:02.519Z,0.87
2017-11-28T13:48:31.760Z,1.20
2017-11-28T13:51:01.014Z,1.27
2017-11-28T13:53:31.030Z,1.70
2017-11-28T13:56:00.319Z,0.90
2017-11-28T13:58:29.596Z,1.30
2017-11-28T14:00:58.940Z,0.90
2017-11-28T14:03:28.179Z,1.00
2017-11-28T14:05:57.404Z,0.90
2017-11-28T14:08:26.652Z,1.13
2017-11-28T14:10:55.967Z,1.10
2017-11-28T14:13:25.302Z,1.40
2017-11-28T14:15:54.563Z,1.10
2017-11-28T14:18:23.816Z,1.43
2017-11-28T14:20:58.539Z,1.70
2017-11-28T14:23:33.922Z,4.53
2017-11-28T14:26:03.435Z,3.47
2017-11-28T14:28:32.663Z,2.70
2017-11-28T14:31:07.437Z,1.80
2017-11-28T14:33:38.699Z,1.27
2017-11-28T14:36:07.971Z,3.40
2017-11-28T14:38:37.205Z,1.70
2017-11-28T14:41:07.292Z,1.80
2017-11-28T14:43:39.316Z,1.67
2017-11-28T14:46:08.984Z,1.30
2017-11-28T14:48:38.986Z,1.40
2017-11-28T14:51:13.807Z,1.30
2017-11-28T14:53:48.569Z,1.00
2017-11-28T14:56:19.317Z,1.17
2017-11-28T15:01:53.924Z,1.10
2017-11-28T15:07:44.624Z,1.20
2017-11-28T15:10:19.324Z,1.60
2017-11-28T15:13:06.021Z,1.30
2017-11-28T15:15:37.176Z,0.80
2017-11-28T15:18:11.784Z,1.60
2017-11-28T15:20:45.111Z,1.17
2017-11-28T15:23:14.342Z,1.07
2017-11-28T15:28:43.747Z,1.20
2017-11-28T15:31:13.026Z,1.23
2017-11-28T15:33:42.311Z,1.20
2017-11-28T15:36:11.565Z,0.90
2017-11-28T15:38:40.965Z,0.97
2017-11-28T15:41:10.191Z,1.10
2017-11-28T15:43:39.595Z,1.00
2017-11-28T15:46:08.812Z,0.90
2017-11-28T15:48:38.079Z,1.50
2017-11-28T15:51:07.321Z,1.20
2017-11-28T15:53:36.615Z,1.23
2017-11-28T15:56:05.855Z,1.10
2017-11-28T15:58:35.724Z,1.23
2017-11-28T16:01:05.103Z,1.10
2017-11-28T16:03:34.351Z,1.90
2017-11-28T16:06:03.616Z,1.20
2017-11-28T16:08:33.638Z,1.33
2017-11-28T16:11:02.871Z,1.40
2017-11-28T16:13:32.120Z,1.23
2017-11-28T16:16:01.373Z,1.00
2017-11-28T16:18:30.734Z,1.00
2017-11-28T16:21:00.036Z,0.90
2017-11-28T16:23:30.036Z,1.30
2017-11-28T16:25:59.286Z,0.80
2017-11-28T16:28:28.512Z,0.90
2017-11-28T16:30:57.824Z,1.70
2017-11-28T16:33:27.153Z,1.20
2017-11-28T16:35:56.517Z,0.90
2017-11-28T16:38:25.988Z,1.20
2017-11-28T16:40:55.242Z,0.97
2017-11-28T16:43:24.511Z,1.10
2017-11-28T16:45:53.751Z,0.90
2017-11-28T16:48:23.010Z,1.03
2017-11-28T16:50:52.231Z,1.00
2017-11-28T16:53:21.485Z,1.50
2017-11-28T16:55:50.727Z,1.17
2017-11-28T16:58:20.844Z,0.90
2017-11-28T17:00:51.843Z,1.20
2017-11-28T17:03:21.090Z,1.40
2017-11-28T17:05:50.327Z,1.00
2017-11-28T17:08:19.582Z,0.80
2017-11-28T17:10:48.860Z,1.13
2017-11-28T17:13:18.231Z,1.13
2017-11-28T17:15:47.507Z,1.50
2017-11-28T17:18:16.764Z,1.10
2017-11-28T17:20:46.002Z,1.40
2017-11-28T17:23:15.252Z,1.00
2017-11-28T17:25:44.639Z,0.97
2017-11-28T17:28:14.628Z,1.43
2017-11-28T17:30:43.869Z,1.30
2017-11-28T17:33:13.126Z,1.10
2017-11-28T17:35:42.500Z,1.20
2017-11-28T17:38:12.279Z,1.60
2017-11-28T17:40:42.303Z,0.83
2017-11-28T17:43:11.605Z,0.93
2017-11-28T17:45:40.903Z,1.10
2017-11-28T17:48:10.300Z,1.20
2017-11-28T17:50:39.545Z,1.50
2017-11-28T17:53:08.800Z,1.90
2017-11-28T17:55:38.033Z,2.20
2017-11-28T17:58:07.291Z,2.00
2017-11-28T18:00:36.528Z,1.43
2017-11-28T18:03:05.770Z,1.57
2017-11-28T18:05:35.040Z,1.47
2017-11-28T18:08:04.259Z,2.10
2017-11-28T18:10:33.519Z,2.00
2017-11-28T18:13:02.948Z,2.73
2017-11-28T18:15:32.403Z,2.13
2017-11-28T18:18:01.911Z,1.77
2017-11-28T18:20:32.123Z,1.10
2017-11-28T18:23:01.364Z,1.57
2017-11-28T18:25:30.618Z,1.43
2017-11-28T18:27:59.847Z,1.50
2017-11-28T18:30:30.096Z,1.90
2017-11-28T18:32:59.399Z,1.43
2017-11-28T18:35:28.686Z,1.60
2017-11-28T18:37:59.791Z,1.37
2017-11-28T18:40:29.142Z,1.13
2017-11-28T18:42:58.397Z,2.07
2017-11-28T18:45:27.701Z,1.47
2017-11-28T18:47:56.973Z,1.20
2017-11-28T18:50:26.213Z,1.80
2017-11-28T18:52:55.509Z,1.47
2017-11-28T18:55:24.807Z,1.60
2017-11-28T18:57:54.091Z,1.50
2017-11-28T19:00:26.764Z,1.77
2017-11-28T19:02:56.284Z,1.43
2017-11-28T19:05:25.933Z,1.40
2017-11-28T19:07:55.547Z,2.00
2017-11-28T19:10:25.613Z,1.30
2017-11-28T19:12:54.863Z,1.30
2017-11-28T19:15:24.122Z,2.10
2017-11-28T19:17:53.363Z,1.77
2017-11-28T19:20:22.628Z,1.63
2017-11-28T19:22:51.976Z,2.13
2017-11-28T19:25:21.177Z,2.03
2017-11-28T19:27:50.565Z,1.97
2017-11-28T19:30:20.799Z,2.00
2017-11-28T19:32:50.098Z,1.63
2017-11-28T19:35:19.461Z,2.07
2017-11-28T19:37:49.646Z,1.87
2017-11-28T19:40:18.880Z,1.73
2017-11-28T19:42:48.122Z,1.60
2017-11-28T19:45:17.388Z,1.93
2017-11-28T19:47:46.633Z,1.60
2017-11-28T19:50:15.883Z,1.93
2017-11-28T19:52:45.208Z,2.17
2017-11-28T19:55:15.220Z,1.40
2017-11-28T19:57:44.482Z,1.80
2017-11-28T20:00:13.737Z,1.70
2017-11-28T20:02:43.839Z,2.30
2017-11-28T20:05:13.095Z,1.80
2017-11-28T20:07:42.376Z,1.83
2017-11-28T20:10:11.651Z,1.70
2017-11-28T20:12:41.775Z,1.80
2017-11-28T20:15:11.059Z,1.90
2017-11-28T20:17:41.202Z,2.53
2017-11-28T20:20:10.541Z,2.20
2017-11-28T20:22:39.788Z,2.10
2017-11-28T20:25:09.024Z,2.40
2017-11-28T20:27:38.284Z,1.73
2017-11-28T20:30:07.544Z,2.30
2017-11-28T20:32:36.801Z,2.23
2017-11-28T20:35:06.819Z,2.10
2017-11-28T20:37:36.223Z,1.60
2017-11-28T20:40:06.269Z,1.80
2017-11-28T20:42:35.658Z,2.10
2017-11-28T20:45:04.888Z,2.17
2017-11-28T20:47:34.158Z,2.40
2017-11-28T20:50:03.442Z,2.00
2017-11-28T20:52:32.858Z,1.90
2017-11-28T20:55:02.993Z,3.20
2017-11-28T20:57:32.248Z,1.90
2017-11-28T21:00:01.506Z,2.00
2017-11-28T21:02:30.749Z,2.77
2017-11-28T21:05:00.039Z,2.43
2017-11-28T21:07:29.283Z,2.23
2017-11-28T21:09:58.670Z,3.10
2017-11-28T21:12:27.914Z,2.07
2017-11-28T21:14:57.228Z,2.20
2017-11-28T21:17:26.469Z,2.40
2017-11-28T21:19:55.724Z,1.97
2017-11-28T21:22:24.959Z,3.07
2017-11-28T21:24:54.366Z,2.57
2017-11-28T21:27:23.816Z,2.87
2017-11-28T21:29:53.062Z,2.43
2017-11-28T21:32:23.829Z,2.53
2017-11-28T21:34:53.071Z,5.40
2017-11-28T21:37:22.514Z,4.70
2017-11-28T21:39:52.668Z,3.50
2017-11-28T21:42:22.673Z,2.90
2017-11-28T21:44:51.933Z,3.60
2017-11-28T21:47:21.173Z,3.53
2017-11-28T21:49:51.951Z,3.10
2017-11-28T21:52:21.198Z,4.10
2017-11-28T21:54:50.444Z,3.70
2017-11-28T21:57:19.692Z,3.50
2017-11-28T21:59:48.956Z,2.50
2017-11-28T22:02:18.211Z,2.80
2017-11-28T22:04:48.235Z,2.87
2017-11-28T22:07:17.482Z,3.47
2017-11-28T22:09:46.899Z,3.30
2017-11-28T22:12:16.211Z,3.60
2017-11-28T22:14:45.439Z,3.30
2017-11-28T22:17:14.827Z,3.73
2017-11-28T22:19:44.840Z,3.80
2017-11-28T22:22:14.109Z,3.93
2017-11-28T22:24:43.354Z,3.33
2017-11-28T22:27:13.364Z,3.57
2017-11-28T22:29:43.636Z,3.33
2017-11-28T22:32:12.880Z,2.63
2017-11-28T22:34:42.390Z,3.93
2017-11-28T22:37:12.421Z,3.30
2017-11-28T22:39:41.820Z,3.10
2017-11-28T22:42:11.830Z,3.00
2017-11-28T22:44:41.096Z,3.53
2017-11-28T22:47:10.356Z,2.80
2017-11-28T22:49:40.339Z,2.90
2017-11-28T22:52:09.623Z,3.20
2017-11-28T22:54:38.878Z,3.27
2017-11-28T22:57:08.139Z,3.20
2017-11-28T22:59:37.427Z,3.77
2017-11-28T23:02:06.642Z,3.97
2017-11-28T23:04:36.651Z,3.30
2017-11-28T23:07:05.897Z,3.90
2017-11-28T23:09:35.143Z,4.50
2017-11-28T23:12:04.370Z,3.37
2017-11-28T23:17:28.969Z,4.40
2017-11-28T23:19:58.279Z,4.77
2017-11-28T23:22:28.278Z,3.93
2017-11-28T23:24:57.562Z,3.90
2017-11-28T23:27:26.824Z,3.97
2017-11-28T23:29:56.911Z,3.70
2017-11-28T23:32:26.319Z,3.97
2017-11-28T23:34:55.742Z,3.17
2017-11-28T23:37:25.761Z,3.30
2017-11-28T23:39:54.999Z,3.90
2017-11-28T23:42:24.254Z,4.20
2017-11-28T23:44:54.423Z,4.20
2017-11-28T23:47:23.755Z,3.87
2017-11-28T23:49:53.130Z,3.90
2017-11-28T23:52:22.455Z,3.70
2017-11-28T23:54:52.169Z,3.50
2017-11-28T23:57:21.406Z,4.20
2017-11-28T23:59:50.668Z,3.60
